Time;durP1;ratioP1;P1;durP2;ratioP2;P2;SDS_P1;SDS_P2;PMS_P1;PMS_P2;Temp;Humidity;BMP_temperature;BMP_pressure;BME280_temperature;BME280_humidity;BME280_pressure;Samples;Min_cycle;Max_cycle;Signal;HPM_P1;HPM_P2
2022/06/26 00:01:40;;;;;;;16.88;12.20;;;21.00;99.90;;;;;;5089578;28;20028;-54
2022/06/26 00:04:06;;;;;;;15.45;11.38;;;20.90;99.90;;;;;;5083795;28;20043;-54
2022/06/26 00:06:32;;;;;;;24.05;13.43;;;20.90;99.90;;;;;;5090020;28;20032;-50
2022/06/26 00:08:58;;;;;;;15.15;11.88;;;21.00;99.90;;;;;;5084179;28;20471;-51
2022/06/26 00:11:24;;;;;;;17.05;11.38;;;20.90;99.90;;;;;;5087324;28;20379;-50
2022/06/26 00:13:50;;;;;;;17.50;11.73;;;21.00;99.90;;;;;;5066363;28;20076;-51
2022/06/26 00:16:16;;;;;;;15.35;11.38;;;21.10;99.90;;;;;;5090019;28;20034;-54
2022/06/26 00:18:42;;;;;;;14.50;10.55;;;21.20;99.90;;;;;;5086681;28;20039;-52
2022/06/26 00:21:08;;;;;;;19.77;11.52;;;21.00;99.90;;;;;;5087548;28;20024;-52
2022/06/26 00:23:37;;;;;;;15.68;10.80;;;21.10;99.90;;;;;;5081572;28;20037;-54
2022/06/26 00:26:03;;;;;;;17.63;10.63;;;21.20;99.90;;;;;;5066590;28;20047;-51
2022/06/26 00:28:30;;;;;;;17.38;11.77;;;21.10;99.90;;;;;;5083295;28;20433;-50
2022/06/26 00:30:56;;;;;;;15.60;11.15;;;21.00;99.90;;;;;;5088354;28;20028;-51
2022/06/26 00:33:21;;;;;;;16.90;11.85;;;20.60;99.90;;;;;;5087189;28;20129;-55
2022/06/26 00:35:47;;;;;;;21.52;12.10;;;20.50;99.90;;;;;;5053384;28;20043;-52
2022/06/26 00:38:13;;;;;;;21.65;12.10;;;20.70;99.90;;;;;;5087932;28;20028;-53
2022/06/26 00:40:40;;;;;;;17.10;11.38;;;20.70;99.90;;;;;;5021770;28;20028;-54
2022/06/26 00:43:06;;;;;;;15.95;11.48;;;20.40;99.90;;;;;;5088286;28;20031;-51
2022/06/26 00:45:32;;;;;;;16.05;11.15;;;20.30;99.90;;;;;;5091033;28;20031;-54
2022/06/26 00:47:58;;;;;;;15.25;10.00;;;20.40;99.90;;;;;;5089307;28;20460;-53
2022/06/26 00:50:25;;;;;;;15.68;10.75;;;20.70;99.90;;;;;;5069853;28;20036;-50
2022/06/26 00:52:53;;;;;;;14.15;11.13;;;20.80;99.90;;;;;;5090169;28;20032;-50
2022/06/26 00:55:20;;;;;;;16.45;11.63;;;21.10;99.90;;;;;;5085257;28;20069;-51
2022/06/26 00:57:46;;;;;;;18.05;10.95;;;21.20;99.90;;;;;;5088055;28;20398;-53
2022/06/26 01:00:13;;;;;;;18.98;12.07;;;21.00;99.90;;;;;;5089584;28;20029;-53
2022/06/26 01:02:39;;;;;;;19.25;11.15;;;21.10;99.90;;;;;;5092149;28;20394;-54
2022/06/26 01:05:06;;;;;;;19.88;12.43;;;21.10;99.90;;;;;;5067690;28;20052;-54
2022/06/26 01:07:32;;;;;;;14.48;10.40;;;20.70;99.90;;;;;;5006586;28;20055;-51
2022/06/26 01:09:58;;;;;;;17.33;11.68;;;20.20;99.90;;;;;;5087926;28;20025;-54
2022/06/26 01:12:24;;;;;;;17.55;11.77;;;20.20;99.90;;;;;;5072033;28;20119;-51
2022/06/26 01:14:53;;;;;;;18.02;14.13;;;20.20;99.90;;;;;;5090583;28;20038;-51
2022/06/26 01:17:19;;;;;;;16.13;12.60;;;20.20;99.90;;;;;;5093298;28;20020;-51
2022/06/26 01:19:45;;;;;;;14.75;12.90;;;20.20;99.90;;;;;;5054931;28;20036;-53
2022/06/26 01:22:11;;;;;;;26.80;14.63;;;20.40;99.90;;;;;;5086814;28;20024;-52
2022/06/26 01:24:36;;;;;;;15.57;11.68;;;20.50;99.90;;;;;;5084978;28;20078;-51
2022/06/26 01:27:03;;;;;;;16.25;12.27;;;20.70;99.90;;;;;;5091111;28;20028;-52
2022/06/26 01:29:29;;;;;;;17.20;12.50;;;20.80;99.90;;;;;;5017445;28;20123;-55
2022/06/26 01:31:54;;;;;;;16.17;12.68;;;20.80;99.90;;;;;;5089820;28;20081;-50
2022/06/26 01:34:20;;;;;;;16.92;13.55;;;20.70;99.90;;;;;;5091162;28;20040;-51
2022/06/26 01:36:46;;;;;;;18.63;12.70;;;20.60;99.90;;;;;;5090413;28;20031;-51
2022/06/26 01:39:12;;;;;;;17.88;13.32;;;20.40;99.90;;;;;;5070052;28;20479;-54
2022/06/26 01:41:37;;;;;;;17.70;12.80;;;20.50;99.90;;;;;;5091062;28;20031;-52
2022/06/26 01:44:07;;;;;;;15.13;12.07;;;20.60;99.90;;;;;;5089185;28;20068;-54
2022/06/26 01:46:34;;;;;;;18.40;11.60;;;20.50;99.90;;;;;;5043078;28;20410;-54
2022/06/26 01:49:00;;;;;;;15.40;12.15;;;;;;;;;;5087479;28;20047;-53
2022/06/26 01:51:26;;;;;;;18.13;12.02;;;20.30;99.90;;;;;;5092837;28;20050;-51
2022/06/26 01:53:51;;;;;;;14.57;11.02;;;20.10;99.90;;;;;;5091340;28;20386;-49
2022/06/26 01:56:18;;;;;;;18.38;12.65;;;20.00;99.90;;;;;;5084892;28;20035;-49
2022/06/26 01:58:43;;;;;;;18.20;12.13;;;19.60;99.90;;;;;;5091136;28;20033;-49
2022/06/26 02:01:09;;;;;;;14.45;11.48;;;19.60;99.90;;;;;;5075887;28;20051;-49
2022/06/26 02:03:35;;;;;;;16.13;11.27;;;19.30;99.90;;;;;;5085218;28;20113;-52
2022/06/26 02:06:02;;;;;;;19.50;12.63;;;19.50;99.90;;;;;;5085676;28;20479;-51
2022/06/26 02:08:28;;;;;;;16.30;11.70;;;19.70;99.90;;;;;;5092442;28;20421;-48
2022/06/26 02:13:40;;;;;;;20.13;10.98;;;20.00;99.90;;;;;;5083615;28;20039;-52
2022/06/26 02:16:11;;;;;;;18.92;11.75;;;20.20;99.90;;;;;;5090865;28;20032;-50
2022/06/26 02:18:38;;;;;;;18.70;12.30;;;19.90;99.90;;;;;;5067476;28;20059;-49
2022/06/26 02:21:07;;;;;;;12.57;11.07;;;19.90;99.90;;;;;;5061617;28;20109;-49
2022/06/26 02:23:32;;;;;;;17.15;10.30;;;20.00;99.90;;;;;;5090721;28;20652;-49
2022/06/26 02:25:58;;;;;;;16.05;10.60;;;19.40;99.90;;;;;;5085541;28;20507;-51
2022/06/26 02:28:24;;;;;;;14.93;12.18;;;19.70;99.90;;;;;;5090329;28;20024;-49
2022/06/26 02:30:50;;;;;;;15.52;11.50;;;19.50;99.90;;;;;;5064780;28;20043;-49
2022/06/26 02:33:16;;;;;;;19.88;12.05;;;19.50;99.90;;;;;;5051073;28;20220;-51
2022/06/26 02:35:42;;;;;;;19.85;12.00;;;19.60;99.90;;;;;;5087829;28;20125;-50
2022/06/26 02:38:08;;;;;;;21.23;13.38;;;20.20;99.90;;;;;;5002665;28;20131;-52
2022/06/26 02:40:34;;;;;;;15.10;12.38;;;19.80;99.90;;;;;;5087970;28;20122;-49
2022/06/26 02:43:00;;;;;;;15.63;12.95;;;19.90;99.90;;;;;;5084090;28;20028;-52
2022/06/26 02:45:25;;;;;;;19.30;13.48;;;19.80;99.90;;;;;;5090252;28;20043;-50
2022/06/26 02:47:51;;;;;;;17.15;13.23;;;19.90;99.90;;;;;;5088909;28;20105;-49
2022/06/26 02:50:17;;;;;;;20.60;13.27;;;19.90;99.90;;;;;;5086114;28;20032;-49
2022/06/26 02:52:44;;;;;;;21.33;14.32;;;20.10;99.90;;;;;;5091950;28;20040;-51
2022/06/26 02:55:10;;;;;;;21.45;13.75;;;20.10;99.90;;;;;;5081619;28;20029;-51
2022/06/26 02:57:36;;;;;;;18.38;13.52;;;19.90;99.90;;;;;;5085710;28;20036;-51
2022/06/26 03:00:04;;;;;;;18.48;13.77;;;19.60;99.90;;;;;;5089692;28;20081;-48
2022/06/26 03:02:30;;;;;;;20.58;13.45;;;19.80;99.90;;;;;;5084493;28;20040;-49
2022/06/26 03:04:56;;;;;;;18.38;13.07;;;20.00;99.90;;;;;;5083638;28;20131;-52
2022/06/26 03:07:21;;;;;;;15.95;12.45;;;20.10;99.90;;;;;;5086313;28;20024;-50
2022/06/26 03:09:47;;;;;;;23.85;12.93;;;20.10;99.90;;;;;;5091243;28;20081;-50
2022/06/26 03:12:14;;;;;;;18.50;12.88;;;20.10;99.90;;;;;;5087918;28;20030;-52
2022/06/26 03:14:40;;;;;;;18.75;13.30;;;20.10;99.90;;;;;;5088066;28;20035;-49
2022/06/26 03:17:06;;;;;;;16.30;12.85;;;20.00;99.90;;;;;;5086445;28;20028;-51
2022/06/26 03:19:32;;;;;;;20.88;12.88;;;20.10;99.90;;;;;;5089860;28;20027;-49
2022/06/26 03:21:57;;;;;;;20.90;12.95;;;20.10;99.90;;;;;;5086378;28;20177;-53
2022/06/26 03:24:23;;;;;;;18.08;12.98;;;20.10;99.90;;;;;;5089265;28;20035;-52
2022/06/26 03:26:49;;;;;;;18.23;14.40;;;20.00;99.90;;;;;;5084406;28;20029;-52
2022/06/26 03:29:15;;;;;;;16.92;12.45;;;20.00;99.90;;;;;;5085415;28;20529;-52
2022/06/26 03:31:41;;;;;;;18.05;13.85;;;20.00;99.90;;;;;;5085262;28;20035;-51
2022/06/26 03:34:07;;;;;;;21.58;13.48;;;20.00;99.90;;;;;;5063102;28;20053;-48
2022/06/26 03:36:34;;;;;;;16.52;12.63;;;20.10;99.90;;;;;;5069846;28;20029;-50
2022/06/26 03:39:01;;;;;;;19.30;13.55;;;20.20;99.90;;;;;;5071238;28;20123;-52
2022/06/26 03:41:27;;;;;;;20.05;13.00;;;20.30;99.90;;;;;;5086048;28;20047;-52
2022/06/26 03:43:53;;;;;;;19.35;12.68;;;20.10;99.90;;;;;;5084862;28;20036;-53
2022/06/26 03:46:19;;;;;;;17.83;13.02;;;19.90;99.90;;;;;;5090214;28;20382;-48
2022/06/26 03:48:45;;;;;;;16.92;13.10;;;19.80;99.90;;;;;;5083332;28;20020;-49
2022/06/26 03:51:11;;;;;;;19.80;12.43;;;19.40;99.90;;;;;;5084775;28;20036;-49
2022/06/26 03:53:37;;;;;;;18.45;13.23;;;19.10;99.90;;;;;;5088516;28;20032;-52
2022/06/26 03:56:04;;;;;;;22.27;13.50;;;19.00;99.90;;;;;;5083419;28;20107;-49
2022/06/26 03:58:30;;;;;;;16.55;12.85;;;19.10;99.90;;;;;;5086005;28;20024;-53
2022/06/26 04:00:56;;;;;;;18.17;11.63;;;19.10;99.90;;;;;;5087393;28;20024;-50
2022/06/26 04:03:23;;;;;;;16.80;12.30;;;19.20;99.90;;;;;;5082223;28;20031;-51
2022/06/26 04:05:48;;;;;;;18.60;12.77;;;19.40;99.90;;;;;;5086816;28;20024;-49
2022/06/26 04:08:14;;;;;;;21.52;12.82;;;19.50;99.90;;;;;;5086139;28;20032;-52
2022/06/26 04:10:41;;;;;;;20.45;13.95;;;19.60;99.90;;;;;;5088340;28;20028;-51
2022/06/26 04:13:09;;;;;;;21.42;13.82;;;19.40;99.90;;;;;;5084500;28;20090;-49
2022/06/26 04:15:36;;;;;;;18.73;13.35;;;19.40;99.90;;;;;;5081127;28;20474;-51
2022/06/26 04:18:03;;;;;;;16.23;13.45;;;19.40;99.90;;;;;;5085820;28;20093;-49
2022/06/26 04:20:29;;;;;;;29.08;12.98;;;19.40;99.90;;;;;;5084605;28;20024;-50
2022/06/26 04:23:07;;;;;;;24.88;13.50;;;19.50;99.90;;;;;;5081392;28;20418;-51
2022/06/26 04:25:38;;;;;;;14.20;12.75;;;19.60;99.90;;;;;;5086525;28;20040;-52
2022/06/26 04:28:05;;;;;;;18.40;12.52;;;19.90;99.90;;;;;;5083863;28;20384;-50
2022/06/26 04:30:31;;;;;;;18.13;11.80;;;20.20;99.90;;;;;;5087853;28;20415;-54
2022/06/26 04:32:57;;;;;;;18.65;12.40;;;20.50;99.90;;;;;;5055409;28;20073;-50
2022/06/26 04:35:23;;;;;;;16.02;11.32;;;20.70;99.90;;;;;;5086608;28;20036;-49
2022/06/26 04:37:49;;;;;;;15.35;11.35;;;20.90;99.90;;;;;;5068949;28;20074;-50
2022/06/26 04:40:15;;;;;;;18.70;11.38;;;20.90;99.90;;;;;;5085741;28;20096;-51
2022/06/26 04:42:41;;;;;;;13.45;10.27;;;20.70;99.90;;;;;;5082960;28;20559;-53
2022/06/26 04:45:09;;;;;;;13.57;11.85;;;20.50;99.90;;;;;;5086211;28;20047;-51
2022/06/26 04:47:35;;;;;;;15.60;10.95;;;20.50;99.90;;;;;;5055100;28;20100;-53
2022/06/26 04:50:01;;;;;;;19.17;11.63;;;20.60;99.90;;;;;;5078100;28;20032;-55
2022/06/26 04:52:26;;;;;;;18.30;11.23;;;20.80;99.90;;;;;;5086702;28;20059;-54
2022/06/26 04:54:52;;;;;;;14.32;10.70;;;21.00;99.90;;;;;;5086401;28;20032;-53
2022/06/26 04:57:18;;;;;;;13.48;12.00;;;20.90;99.90;;;;;;5086532;28;20454;-52
2022/06/26 04:59:44;;;;;;;21.75;13.43;;;20.90;99.90;;;;;;5083828;28;20151;-51
2022/06/26 05:02:10;;;;;;;18.38;11.38;;;20.80;99.90;;;;;;5083910;28;20059;-49
2022/06/26 05:04:37;;;;;;;16.42;10.98;;;20.90;99.90;;;;;;5084609;28;20040;-52
2022/06/26 05:07:03;;;;;;;16.88;11.18;;;20.90;99.90;;;;;;5083040;28;20074;-54
2022/06/26 05:09:30;;;;;;;22.92;10.88;;;21.00;99.90;;;;;;5089815;28;20365;-50
2022/06/26 05:11:57;;;;;;;13.50;10.02;;;21.30;99.90;;;;;;5083406;28;20064;-53
2022/06/26 05:14:22;;;;;;;13.40;9.65;;;21.30;99.90;;;;;;5086537;28;20502;-54
2022/06/26 05:16:49;;;;;;;13.82;11.45;;;21.20;99.90;;;;;;5067512;28;20036;-50
2022/06/26 05:19:14;;;;;;;13.68;9.75;;;21.20;99.90;;;;;;5086678;28;20432;-51
2022/06/26 05:21:40;;;;;;;13.43;10.00;;;21.40;99.90;;;;;;5082467;28;20036;-54
2022/06/26 05:24:06;;;;;;;13.93;10.30;;;21.50;99.90;;;;;;5079195;28;20033;-51
2022/06/26 05:26:33;;;;;;;20.98;11.88;;;21.50;99.90;;;;;;5062732;28;20044;-53
2022/06/26 05:28:59;;;;;;;16.55;10.48;;;21.40;99.90;;;;;;5059199;28;20044;-54
2022/06/26 05:31:25;;;;;;;17.40;10.10;;;21.40;99.90;;;;;;5037566;28;20403;-53
2022/06/26 05:33:51;;;;;;;13.98;10.00;;;21.50;99.90;;;;;;5062809;28;20507;-53
2022/06/26 05:36:17;;;;;;;13.45;10.15;;;21.50;99.90;;;;;;5064212;28;20036;-53
2022/06/26 05:38:42;;;;;;;11.50;9.32;;;21.70;99.90;;;;;;5060270;28;20036;-52
2022/06/26 05:41:09;;;;;;;13.48;9.65;;;21.80;99.90;;;;;;5004072;28;20039;-52
2022/06/26 05:43:35;;;;;;;16.17;9.95;;;21.90;99.90;;;;;;5065689;28;20047;-53
2022/06/26 05:46:01;;;;;;;12.93;8.82;;;22.00;99.90;;;;;;5069758;28;20055;-51
2022/06/26 05:48:27;;;;;;;12.05;8.02;;;22.20;99.90;;;;;;5068904;28;20480;-53
2022/06/26 05:50:55;;;;;;;9.35;7.93;;;22.60;99.90;;;;;;5065595;28;20036;-52
2022/06/26 05:53:24;;;;;;;10.10;7.22;;;22.80;99.90;;;;;;5065658;28;20488;-51
2022/06/26 05:55:50;;;;;;;13.50;8.07;;;23.10;99.90;;;;;;5055869;28;20043;-50
2022/06/26 05:58:16;;;;;;;11.85;7.15;;;23.40;99.90;;;;;;5068446;28;20044;-53
2022/06/26 06:00:42;;;;;;;10.60;7.38;;;23.70;99.90;;;;;;5087252;28;20078;-52
2022/06/26 06:03:08;;;;;;;13.10;6.85;;;23.70;99.90;;;;;;5082793;28;20110;-52
2022/06/26 06:05:34;;;;;;;9.20;6.78;;;23.80;99.90;;;;;;5054053;28;20064;-53
2022/06/26 06:08:01;;;;;;;10.65;7.03;;;;;;;;;;5084608;28;20033;-54
2022/06/26 06:10:27;;;;;;;12.73;7.45;;;;;;;;;;5090953;28;20068;-54
2022/06/26 06:12:53;;;;;;;14.48;7.43;;;24.40;99.90;;;;;;5085117;28;20472;-52
2022/06/26 06:15:22;;;;;;;10.85;7.53;;;;;;;;;;5083613;28;20036;-53
2022/06/26 06:17:48;;;;;;;11.63;7.53;;;;;;;;;;5083951;28;20024;-50
2022/06/26 06:20:17;;;;;;;11.77;6.45;;;;;;;;;;5084615;28;20031;-54
2022/06/26 06:23:05;;;;;;;11.15;7.15;;;24.60;99.90;;;;;;5089105;28;20026;-54
2022/06/26 06:25:32;;;;;;;11.45;6.10;;;24.80;99.90;;;;;;5033110;28;20439;-53
2022/06/26 06:27:58;;;;;;;12.80;7.28;;;24.90;99.90;;;;;;5059824;28;20049;-53
2022/06/26 06:30:24;;;;;;;12.50;6.78;;;24.90;99.90;;;;;;5059393;28;20126;-54
2022/06/26 06:32:50;;;;;;;9.05;6.63;;;;;;;;;;5068584;28;20028;-51
2022/06/26 06:35:16;;;;;;;9.57;6.88;;;25.30;99.90;;;;;;5064879;28;20134;-54
2022/06/26 06:37:43;;;;;;;14.30;7.32;;;;;;;;;;5060601;28;20029;-52
2022/06/26 06:40:09;;;;;;;11.00;6.70;;;;;;;;;;5057785;28;20040;-54
2022/06/26 06:42:35;;;;;;;8.63;6.22;;;25.90;99.90;;;;;;5058933;28;20032;-51
2022/06/26 06:45:02;;;;;;;13.70;6.45;;;;;;;;;;5048695;28;20040;-52
2022/06/26 06:47:28;;;;;;;8.77;5.80;;;;;;;;;;5069953;28;20029;-54
2022/06/26 06:49:54;;;;;;;11.00;6.70;;;;;;;;;;5060288;28;20594;-51
2022/06/26 06:52:20;;;;;;;8.43;5.90;;;;;;;;;;5020635;28;20082;-54
2022/06/26 06:54:46;;;;;;;7.88;6.10;;;;;;;;;;5062743;28;20029;-53
2022/06/26 06:57:12;;;;;;;9.65;6.85;;;;;;;;;;5082469;28;20068;-53
2022/06/26 06:59:38;;;;;;;11.88;6.45;;;26.50;99.90;;;;;;5090339;28;20020;-54
2022/06/26 07:02:04;;;;;;;11.32;7.55;;;26.50;99.90;;;;;;5086438;28;20024;-53
2022/06/26 07:04:30;;;;;;;9.93;6.28;;;26.40;99.90;;;;;;5085835;28;20176;-52
2022/06/26 07:06:56;;;;;;;14.20;7.07;;;26.50;99.90;;;;;;5066037;28;20033;-53
2022/06/26 07:09:22;;;;;;;10.50;6.55;;;26.50;99.90;;;;;;5086100;28;20023;-53
2022/06/26 07:11:48;;;;;;;9.73;6.32;;;26.60;99.90;;;;;;5066708;28;20047;-53
2022/06/26 07:14:14;;;;;;;10.40;6.95;;;26.60;99.90;;;;;;5079647;28;20013;-52
2022/06/26 07:16:40;;;;;;;10.77;6.78;;;26.70;99.90;;;;;;5085419;28;20020;-53
2022/06/26 07:19:06;;;;;;;13.65;6.45;;;26.80;99.90;;;;;;5082678;28;20525;-53
2022/06/26 07:21:32;;;;;;;12.32;6.35;;;26.90;99.90;;;;;;5084170;28;20031;-52
2022/06/26 07:23:58;;;;;;;11.00;5.93;;;26.80;99.90;;;;;;5082836;28;20114;-53
2022/06/26 07:26:24;;;;;;;7.78;5.47;;;26.60;99.90;;;;;;5086866;28;20051;-53
2022/06/26 07:28:50;;;;;;;10.32;6.45;;;26.90;99.90;;;;;;5086482;28;20020;-53
2022/06/26 07:31:16;;;;;;;11.27;5.78;;;27.10;99.90;;;;;;5083987;28;20040;-52
2022/06/26 07:36:26;;;;;;;7.97;5.75;;;27.40;99.90;;;;;;5082588;28;20097;-53
2022/06/26 07:38:52;;;;;;;11.25;5.70;;;27.50;99.90;;;;;;5091550;28;20040;-52
2022/06/26 07:41:18;;;;;;;7.75;4.85;;;27.10;99.90;;;;;;5086908;28;20032;-52
2022/06/26 07:43:44;;;;;;;10.40;5.32;;;27.40;99.90;;;;;;5099888;28;20403;-52
2022/06/26 07:46:10;;;;;;;10.68;5.45;;;27.60;99.90;;;;;;5089510;28;20024;-52
2022/06/26 07:48:36;;;;;;;7.07;4.60;;;27.80;99.90;;;;;;5086214;28;20047;-51
2022/06/26 07:51:02;;;;;;;10.25;4.80;;;27.70;99.90;;;;;;5070117;28;20038;-52
2022/06/26 07:53:28;;;;;;;10.30;4.32;;;27.70;99.90;;;;;;5085551;28;20033;-52
2022/06/26 07:55:54;;;;;;;8.25;4.30;;;;;;;;;;5089806;28;20024;-53
2022/06/26 07:58:21;;;;;;;12.18;5.30;;;27.70;99.90;;;;;;5085617;28;20047;-54
2022/06/26 08:00:47;;;;;;;7.53;4.30;;;;;;;;;;5069908;28;20115;-56
2022/06/26 08:03:16;;;;;;;9.05;4.47;;;28.10;99.90;;;;;;5085501;28;20024;-54
2022/06/26 08:05:42;;;;;;;9.52;4.82;;;28.20;99.90;;;;;;5071694;28;20040;-52
2022/06/26 08:08:09;;;;;;;9.70;4.28;;;28.40;99.90;;;;;;5082539;28;20021;-53
2022/06/26 08:10:36;;;;;;;8.50;4.30;;;28.50;99.90;;;;;;5087087;28;20381;-52
2022/06/26 08:13:06;;;;;;;8.73;4.65;;;28.60;99.90;;;;;;5081089;28;20404;-51
2022/06/26 08:15:32;;;;;;;7.35;4.68;;;28.60;99.90;;;;;;5087247;28;20099;-53
2022/06/26 08:17:58;;;;;;;8.48;4.70;;;28.60;99.90;;;;;;5085322;28;20108;-55
2022/06/26 08:20:24;;;;;;;7.32;4.50;;;28.60;99.90;;;;;;5070668;28;20040;-52
2022/06/26 08:22:50;;;;;;;7.13;4.28;;;28.70;99.90;;;;;;5083477;28;20429;-52
2022/06/26 08:25:16;;;;;;;5.72;4.30;;;28.70;99.90;;;;;;5055099;28;20055;-55
2022/06/26 08:27:42;;;;;;;9.52;5.05;;;28.80;99.90;;;;;;5091606;28;20020;-52
2022/06/26 08:30:09;;;;;;;5.22;3.63;;;28.90;99.90;;;;;;5068638;28;20041;-54
2022/06/26 08:32:36;;;;;;;7.43;4.20;;;;;;;;;;5071107;28;20101;-55
2022/06/26 08:35:07;;;;;;;9.57;4.25;;;29.10;99.90;;;;;;5086504;28;20044;-52
2022/06/26 08:37:33;;;;;;;10.93;4.45;;;29.10;99.90;;;;;;5049133;28;20039;-55
2022/06/26 08:39:59;;;;;;;6.47;4.38;;;29.20;99.90;;;;;;5069586;28;20040;-51
2022/06/26 08:42:27;;;;;;;5.43;3.85;;;29.30;99.90;;;;;;5091532;28;20471;-54
2022/06/26 08:44:57;;;;;;;4.07;3.42;;;29.60;99.90;;;;;;5079444;28;20534;-54
2022/06/26 08:47:24;;;;;;;6.97;3.47;;;29.50;99.90;;;;;;5082842;28;20103;-51
2022/06/26 08:49:54;;;;;;;6.30;3.88;;;29.60;99.90;;;;;;5080161;28;20103;-52
2022/06/26 08:52:21;;;;;;;3.10;2.20;;;29.50;99.90;;;;;;5082690;28;20040;-52
2022/06/26 08:54:48;;;;;;;4.90;2.38;;;29.60;99.90;;;;;;5067577;28;20040;-53
2022/06/26 08:57:15;;;;;;;3.50;2.42;;;29.70;99.90;;;;;;5084888;28;20037;-53
2022/06/26 08:59:41;;;;;;;6.45;2.22;;;29.90;99.90;;;;;;5084071;28;20040;-54
2022/06/26 09:02:07;;;;;;;10.75;2.42;;;30.00;99.90;;;;;;5082752;28;20490;-51
2022/06/26 09:04:35;;;;;;;4.40;2.38;;;;;;;;;;5020383;28;20127;-55
2022/06/26 09:07:01;;;;;;;5.18;2.33;;;;;;;;;;5085085;28;20032;-53
2022/06/26 09:09:28;;;;;;;7.05;2.60;;;;;;;;;;5092493;28;20036;-53
2022/06/26 09:11:56;;;;;;;4.80;2.47;;;;;;;;;;5090408;28;20024;-51
2022/06/26 09:14:22;;;;;;;5.93;2.33;;;;;;;;;;5087120;28;20093;-51
2022/06/26 09:16:49;;;;;;;5.22;2.08;;;;;;;;;;5087357;28;20055;-51
2022/06/26 09:19:18;;;;;;;6.10;2.20;;;;;;;;;;5089182;28;20164;-51
2022/06/26 09:21:45;;;;;;;5.32;2.28;;;;;;;;;;5083840;28;20031;-51
2022/06/26 09:24:13;;;;;;;4.38;2.30;;;30.40;99.90;;;;;;5079386;28;20052;-51
2022/06/26 09:26:39;;;;;;;6.60;2.53;;;;;;;;;;5085848;28;20062;-51
2022/06/26 09:29:18;;;;;;;5.20;2.38;;;30.80;99.90;;;;;;5081993;28;20036;-51
2022/06/26 09:31:44;;;;;;;4.35;2.40;;;;;;;;;;5086197;28;20028;-52
2022/06/26 09:34:26;;;;;;;6.97;3.20;;;30.50;99.90;;;;;;5088213;28;20048;-51
2022/06/26 09:37:02;;;;;;;4.15;2.17;;;30.90;99.90;;;;;;5088453;28;20039;-51
2022/06/26 09:39:30;;;;;;;6.95;2.30;;;;;;;;;;5083903;28;20031;-51
2022/06/26 09:41:56;;;;;;;2.95;1.70;;;;;;;;;;5084258;28;20035;-52
2022/06/26 09:44:23;;;;;;;5.20;2.08;;;;;;;;;;5051484;28;20047;-52
2022/06/26 09:46:50;;;;;;;3.60;1.80;;;;;;;;;;5090986;28;20604;-51
2022/06/26 09:49:17;;;;;;;4.93;1.85;;;30.90;99.90;;;;;;5086364;28;20046;-51
2022/06/26 09:51:44;;;;;;;3.92;1.73;;;;;;;;;;5102101;28;20032;-51
2022/06/26 09:54:11;;;;;;;2.13;1.58;;;;;;;;;;5086921;28;20031;-51
2022/06/26 09:56:36;;;;;;;2.55;1.75;;;31.60;99.90;;;;;;5079578;28;20193;-49
2022/06/26 09:59:04;;;;;;;5.10;1.90;;;;;;;;;;5058879;28;20531;-49
2022/06/26 10:07:01;;;;;;;5.95;1.80;;;;;;;;;;5084611;28;20454;-48
2022/06/26 10:09:28;;;;;;;3.58;1.80;;;;;;;;;;5091249;28;20029;-52
2022/06/26 10:11:55;;;;;;;4.38;2.03;;;;;;;;;;5060281;28;20044;-53
2022/06/26 10:14:27;;;;;;;5.72;2.35;;;;;;;;;;5063855;28;20135;-52
2022/06/26 10:17:08;;;;;;;6.10;2.10;;;;;;;;;;5059644;28;20043;-49
2022/06/26 10:19:40;;;;;;;2.90;1.80;;;;;;;;;;5032867;28;20409;-51
2022/06/26 10:22:06;;;;;;;2.85;1.80;;;;;;;;;;5042333;28;20079;-51
2022/06/26 10:24:32;;;;;;;3.33;1.80;;;32.20;99.40;;;;;;5029895;28;20040;-49
2022/06/26 10:27:00;;;;;;;4.13;1.90;;;32.00;98.70;;;;;;5050926;28;20029;-52
2022/06/26 10:29:37;;;;;;;6.55;2.05;;;31.80;99.00;;;;;;5016924;28;20754;-49
2022/06/26 10:32:04;;;;;;;5.13;2.08;;;31.60;99.70;;;;;;5034450;28;20505;-50
2022/06/26 10:34:31;;;;;;;3.75;1.90;;;32.00;98.60;;;;;;5033340;28;20060;-52
2022/06/26 10:37:14;;;;;;;6.32;1.92;;;32.20;98.60;;;;;;5018563;28;20048;-49
2022/06/26 10:39:44;;;;;;;5.30;1.83;;;32.00;98.40;;;;;;5067169;28;20024;-50
2022/06/26 10:45:20;;;;;;;7.40;2.97;;;31.00;98.50;;;;;;5086331;28;20105;-52
2022/06/26 10:47:51;;;;;;;4.75;1.50;;;31.30;98.10;;;;;;5063471;28;20090;-54
2022/06/26 10:50:39;;;;;;;2.22;1.30;;;31.70;95.40;;;;;;5090437;28;20024;-52
2022/06/26 10:53:22;;;;;;;1.83;1.17;;;32.20;95.00;;;;;;5066731;28;20089;-53
2022/06/26 10:55:48;;;;;;;6.25;1.30;;;32.60;94.80;;;;;;5070553;28;20070;-53
2022/06/26 10:58:42;;;;;;;3.40;1.10;;;33.00;94.90;;;;;;5083115;28;20098;-52
2022/06/26 11:01:09;;;;;;;4.28;1.90;;;32.60;94.00;;;;;;5085977;28;20119;-52
2022/06/26 11:03:36;;;;;;;5.25;2.00;;;32.30;95.10;;;;;;5088745;28;20036;-54
2022/06/26 11:06:03;;;;;;;8.32;3.28;;;32.60;94.50;;;;;;5086169;28;20150;-54
2022/06/26 11:08:30;;;;;;;6.45;2.72;;;32.50;95.00;;;;;;5085805;28;20032;-52
2022/06/26 11:11:09;;;;;;;4.05;1.85;;;32.50;95.40;;;;;;5082125;28;20033;-50
2022/06/26 11:13:47;;;;;;;23.38;15.15;;;32.70;95.00;;;;;;5070776;28;20047;-50
2022/06/26 11:16:12;;;;;;;30.98;20.77;;;33.10;94.40;;;;;;5088216;28;20048;-52
2022/06/26 11:18:38;;;;;;;33.08;19.65;;;33.10;93.90;;;;;;5035450;28;20075;-50
2022/06/26 11:21:04;;;;;;;6.55;3.40;;;32.60;93.60;;;;;;5068021;28;20037;-52
2022/06/26 11:23:33;;;;;;;4.65;2.28;;;33.00;98.40;;;;;;5081690;28;20429;-52
2022/06/26 11:26:01;;;;;;;0.90;0.82;;;33.30;97.90;;;;;;5068616;28;20065;-52
2022/06/26 11:28:33;;;;;;;4.22;1.20;;;33.50;96.10;;;;;;5084743;28;20024;-51
2022/06/26 11:31:00;;;;;;;2.35;0.98;;;;;;;;;;5067973;28;20036;-49
2022/06/26 11:33:28;;;;;;;7.70;2.90;;;33.90;90.90;;;;;;5066893;28;20102;-52
2022/06/26 11:35:55;;;;;;;4.55;1.55;;;33.90;92.30;;;;;;5063277;28;20523;-49
2022/06/26 11:38:22;;;;;;;37.40;16.20;;;34.00;91.40;;;;;;5066879;28;20047;-46
2022/06/26 11:40:49;;;;;;;46.30;20.38;;;33.50;91.90;;;;;;5052227;28;20117;-52
2022/06/26 11:43:16;;;;;;;10.30;5.22;;;33.60;92.10;;;;;;5058335;28;20044;-50
2022/06/26 11:45:43;;;;;;;7.95;3.88;;;33.50;92.80;;;;;;5033720;28;20443;-54
2022/06/26 11:48:16;;;;;;;3.33;1.17;;;33.20;91.20;;;;;;5014511;28;20404;-51
2022/06/26 11:50:44;;;;;;;9.63;4.03;;;32.90;91.40;;;;;;5064091;28;20403;-51
2022/06/26 11:53:20;;;;;;;9.57;3.22;;;33.30;92.50;;;;;;5068872;28;20093;-53
2022/06/26 11:55:53;;;;;;;10.65;5.10;;;33.40;92.10;;;;;;5062651;28;20043;-53
2022/06/26 11:58:23;;;;;;;15.00;5.25;;;33.30;92.60;;;;;;5061679;28;20037;-54
2022/06/26 12:00:49;;;;;;;26.60;13.60;;;33.20;93.20;;;;;;5068152;28;20101;-53
2022/06/26 12:03:16;;;;;;;6.10;2.25;;;33.50;92.60;;;;;;5084172;28;20035;-53
2022/06/26 12:05:43;;;;;;;16.77;6.13;;;33.40;91.70;;;;;;5087953;28;20040;-55
2022/06/26 12:08:19;;;;;;;13.90;3.80;;;34.20;92.40;;;;;;5079405;28;20029;-50
2022/06/26 12:10:50;;;;;;;20.10;10.30;;;34.00;91.10;;;;;;5082372;28;20055;-52
2022/06/26 12:13:35;;;;;;;14.52;4.65;;;33.80;90.80;;;;;;5072101;28;20129;-52
2022/06/26 12:16:06;;;;;;;3.58;1.67;;;34.00;92.10;;;;;;5056100;28;20115;-54
2022/06/26 12:18:40;;;;;;;12.25;5.80;;;34.40;91.50;;;;;;5088411;28;20040;-54
2022/06/26 12:21:19;;;;;;;3.65;2.10;;;34.10;91.20;;;;;;5087463;28;20036;-49
2022/06/26 12:23:47;;;;;;;1.70;1.17;;;34.20;90.90;;;;;;5083724;28;20040;-53
2022/06/26 12:26:18;;;;;;;4.90;1.33;;;34.20;90.20;;;;;;5085112;28;20029;-49
2022/06/26 12:28:58;;;;;;;5.47;2.58;;;34.50;90.40;;;;;;5078842;28;20077;-53
2022/06/26 12:31:24;;;;;;;19.67;8.27;;;34.20;90.90;;;;;;5052193;28;20475;-52
2022/06/26 12:33:50;;;;;;;11.93;6.25;;;34.20;89.60;;;;;;5085282;28;20052;-49
2022/06/26 12:36:17;;;;;;;16.02;6.47;;;34.00;89.30;;;;;;5083307;28;20016;-49
2022/06/26 12:38:44;;;;;;;6.50;3.10;;;33.50;89.10;;;;;;5082897;28;20108;-52
2022/06/26 12:41:17;;;;;;;4.75;2.17;;;33.90;88.80;;;;;;5087390;28;20054;-52
2022/06/26 12:43:52;;;;;;;55.28;21.67;;;33.90;89.80;;;;;;5089621;28;20111;-54
2022/06/26 12:46:18;;;;;;;34.97;14.02;;;33.90;88.80;;;;;;5009598;28;20032;-49
2022/06/26 12:48:45;;;;;;;5.57;1.83;;;34.10;89.90;;;;;;5066660;28;20555;-50
2022/06/26 12:51:11;;;;;;;4.03;1.05;;;34.60;90.10;;;;;;5030906;28;20044;-52
2022/06/26 12:53:37;;;;;;;3.13;1.45;;;;;;;;;;5064582;28;20115;-52
2022/06/26 12:56:04;;;;;;;71.18;26.55;;;;;;;;;;5063622;28;20434;-55
2022/06/26 12:58:29;;;;;;;13.60;5.07;;;34.80;99.90;;;;;;5065629;28;20123;-52
2022/06/26 13:00:55;;;;;;;49.67;19.80;;;34.60;99.90;;;;;;5068443;28;20119;-53
2022/06/26 13:03:21;;;;;;;30.33;12.57;;;34.70;99.90;;;;;;5067012;28;20086;-54
2022/06/26 13:05:48;;;;;;;19.52;7.43;;;34.90;99.90;;;;;;5030959;28;20040;-51